Time;durP1;ratioP1;P1;durP2;ratioP2;P2;SDS_P1;SDS_P2;PMS_P1;PMS_P2;Temp;Humidity;BMP_temperature;BMP_pressure;BME280_temperature;BME280_humidity;BME280_pressure;Samples;Min_cycle;Max_cycle;Signal;HPM_P1;HPM_P2
2024/02/28 00:02:17;;;;;;;12.33;9.60;;;;;;;;;;5016997;28;20411;-75
2024/02/28 00:04:43;;;;;;;10.53;9.20;;;;;;;;;;5017632;28;20456;-76
2024/02/28 00:07:09;;;;;;;10.50;9.33;;;;;;;;;;5036328;28;20911;-76
2024/02/28 00:09:35;;;;;;;13.83;9.77;;;;;;;;;;5036611;28;20420;-75
2024/02/28 00:12:01;;;;;;;11.70;8.40;;;;;;;;;;5036462;28;20413;-76
2024/02/28 00:14:26;;;;;;;11.07;9.17;;;;;;;;;;5036084;28;20425;-76
2024/02/28 00:16:58;;;;;;;13.87;9.87;;;;;;;;;;5035425;28;20423;-75
2024/02/28 00:19:25;;;;;;;14.27;10.60;;;;;;;;;;5035803;28;20413;-75
2024/02/28 00:21:51;;;;;;;16.63;11.53;;;;;;;;;;5035978;28;20913;-77
2024/02/28 00:24:17;;;;;;;15.47;11.50;;;;;;;;;;5035849;28;20973;-76
2024/02/28 00:26:43;;;;;;;12.77;9.60;;;;;;;;;;5035793;28;20496;-76
2024/02/28 00:29:10;;;;;;;15.60;11.03;;;;;;;;;;5033216;28;20498;-76
2024/02/28 00:31:36;;;;;;;14.83;10.27;;;;;;;;;;5035246;28;20917;-75
2024/02/28 00:34:02;;;;;;;13.50;10.33;;;;;;;;;;5034359;28;20923;-76
2024/02/28 00:36:28;;;;;;;13.30;10.20;;;;;;;;;;5034131;28;20490;-76
2024/02/28 00:38:54;;;;;;;14.67;11.23;;;;;;;;;;5035314;28;20458;-76
2024/02/28 00:41:19;;;;;;;19.60;12.17;;;;;;;;;;5035546;28;20410;-77
2024/02/28 00:43:45;;;;;;;15.40;10.60;;;;;;;;;;5035391;28;20885;-76
2024/02/28 00:46:12;;;;;;;15.83;12.00;;;;;;;;;;5035089;28;20423;-75
2024/02/28 00:48:40;;;;;;;17.23;12.20;;;;;;;;;;5035307;28;20426;-76
2024/02/28 00:51:08;;;;;;;15.10;11.70;;;;;;;;;;5035291;28;20401;-76
2024/02/28 00:53:34;;;;;;;15.83;12.10;;;;;;;;;;5035342;28;20775;-76
2024/02/28 00:56:00;;;;;;;15.50;11.10;;;;;;;;;;5035147;28;20472;-76
2024/02/28 00:58:27;;;;;;;18.53;14.27;;;;;;;;;;5033640;28;20416;-77
2024/02/28 01:00:53;;;;;;;16.40;13.60;;;;;;;;;;5034802;28;20525;-76
2024/02/28 01:03:19;;;;;;;20.00;14.67;;;;;;;;;;5034963;28;20413;-76
2024/02/28 01:05:45;;;;;;;18.93;14.80;;;;;;;;;;5035017;28;20427;-76
2024/02/28 01:08:11;;;;;;;18.90;14.80;;;;;;;;;;5034990;28;20497;-76
2024/02/28 01:10:38;;;;;;;15.43;13.53;;;;;;;;;;5034994;28;20512;-75
2024/02/28 01:13:04;;;;;;;16.40;12.57;;;;;;;;;;5034876;28;20423;-75
2024/02/28 01:15:32;;;;;;;17.70;14.07;;;;;;;;;;5033128;28;20473;-76
2024/02/28 01:17:58;;;;;;;14.73;12.23;;;;;;;;;;5034854;28;20902;-77
2024/02/28 01:20:24;;;;;;;16.70;14.33;;;;;;;;;;5034741;28;20422;-77
2024/02/28 01:22:50;;;;;;;18.47;14.20;;;;;;;;;;5034691;28;20402;-76
2024/02/28 01:25:16;;;;;;;16.37;13.37;;;;;;;;;;5034682;28;20410;-77
2024/02/28 01:27:42;;;;;;;17.60;14.70;;;;;;;;;;5034604;28;20479;-75
2024/02/28 01:30:08;;;;;;;16.87;14.67;;;;;;;;;;5034262;28;20423;-75
2024/02/28 01:32:34;;;;;;;17.83;14.07;;;;;;;;;;5034603;28;20776;-76
2024/02/28 01:35:00;;;;;;;21.50;16.57;;;;;;;;;;5034484;28;20469;-76
2024/02/28 01:37:26;;;;;;;19.17;14.67;;;;;;;;;;5034383;28;20417;-77
2024/02/28 01:39:52;;;;;;;18.90;14.83;;;;;;;;;;5034228;28;20492;-78
2024/02/28 01:42:18;;;;;;;20.97;15.87;;;;;;;;;;5034453;28;20894;-76
2024/02/28 01:44:46;;;;;;;20.70;15.27;;;;;;;;;;5033913;28;20435;-76
2024/02/28 01:47:12;;;;;;;19.70;15.93;;;;;;;;;;5034250;28;20462;-75
2024/02/28 01:49:38;;;;;;;22.10;16.17;;;;;;;;;;5032963;28;20409;-76
2024/02/28 01:52:05;;;;;;;23.83;16.93;;;;;;;;;;5034141;28;20436;-75
2024/02/28 01:54:31;;;;;;;19.17;14.47;;;;;;;;;;5034036;28;20478;-76
2024/02/28 01:56:58;;;;;;;19.70;15.40;;;;;;;;;;5034065;28;20432;-77
2024/02/28 01:59:24;;;;;;;20.57;15.23;;;;;;;;;;5032409;28;20403;-77
2024/02/28 02:01:51;;;;;;;24.20;17.20;;;;;;;;;;5034023;28;20422;-77
2024/02/28 02:04:17;;;;;;;21.40;16.93;;;;;;;;;;5032662;28;20874;-76
2024/02/28 02:06:45;;;;;;;26.60;19.10;;;;;;;;;;5034069;28;20452;-76
2024/02/28 02:09:11;;;;;;;23.77;16.33;;;;;;;;;;5034357;28;20702;-76
2024/02/28 02:11:38;;;;;;;23.80;17.50;;;;;;;;;;5034318;28;20505;-76
2024/02/28 02:14:04;;;;;;;21.83;16.93;;;;;;;;;;5032402;28;20482;-77
2024/02/28 02:16:30;;;;;;;24.10;18.50;;;;;;;;;;5033810;28;20878;-78
2024/02/28 02:18:56;;;;;;;24.90;17.87;;;;;;;;;;5032984;28;20415;-78
2024/02/28 02:21:28;;;;;;;25.03;19.10;;;;;;;;;;5033679;28;20485;-77
2024/02/28 02:23:54;;;;;;;24.17;16.63;;;;;;;;;;5034074;28;20417;-78
2024/02/28 02:26:20;;;;;;;23.23;16.40;;;;;;;;;;5032748;28;20429;-78
2024/02/28 02:29:06;;;;;;;26.27;16.10;;;;;;;;;;5033933;28;20489;-77
2024/02/28 02:31:32;;;;;;;22.10;16.50;;;;;;;;;;5032606;28;20937;-77
2024/02/28 02:33:58;;;;;;;23.30;16.67;;;;;;;;;;5033785;28;20413;-78
2024/02/28 02:36:24;;;;;;;25.43;17.43;;;;;;;;;;5033727;28;20499;-77
2024/02/28 02:38:50;;;;;;;23.13;16.17;;;;;;;;;;5033579;28;20418;-76
2024/02/28 02:41:16;;;;;;;26.30;18.53;;;;;;;;;;5033766;28;20430;-78
2024/02/28 02:43:44;;;;;;;23.40;16.10;;;;;;;;;;5033675;28;20497;-76
2024/02/28 02:46:10;;;;;;;25.23;17.23;;;;;;;;;;5033235;28;20425;-76
2024/02/28 02:48:36;;;;;;;24.70;17.00;;;;;;;;;;5032321;28;20417;-76
2024/02/28 02:51:02;;;;;;;24.27;17.40;;;;;;;;;;5033535;28;20414;-76
2024/02/28 02:53:28;;;;;;;23.87;15.80;;;;;;;;;;5033473;28;20911;-76
2024/02/28 02:55:54;;;;;;;25.80;17.53;;;;;;;;;;5032163;28;20824;-76
2024/02/28 02:58:20;;;;;;;23.80;16.50;;;;;;;;;;5033468;28;20410;-77
2024/02/28 03:00:49;;;;;;;27.70;16.93;;;;;;;;;;5032936;28;20531;-77
2024/02/28 03:03:15;;;;;;;27.47;17.57;;;;;;;;;;5033444;28;20413;-78
2024/02/28 03:05:41;;;;;;;26.77;16.03;;;;;;;;;;5032120;28;20516;-77
2024/02/28 03:08:07;;;;;;;30.53;18.40;;;;;;;;;;5033336;28;20416;-76
2024/02/28 03:10:33;;;;;;;27.03;19.00;;;;;;;;;;5031985;28;20433;-77
2024/02/28 03:13:00;;;;;;;24.93;17.60;;;;;;;;;;5032955;28;20418;-77
2024/02/28 03:15:26;;;;;;;27.47;16.73;;;;;;;;;;5032859;28;20555;-77
2024/02/28 03:17:52;;;;;;;25.23;16.93;;;;;;;;;;5033254;28;20437;-77
2024/02/28 03:20:18;;;;;;;25.27;17.63;;;;;;;;;;5033165;28;20421;-77
2024/02/28 03:22:44;;;;;;;24.83;17.60;;;;;;;;;;5032555;28;20406;-76
2024/02/28 03:25:10;;;;;;;33.20;19.07;;;;;;;;;;5030402;28;20793;-78
2024/02/28 03:27:36;;;;;;;29.70;17.93;;;;;;;;;;5032553;28;20781;-76
2024/02/28 03:30:03;;;;;;;25.23;17.70;;;;;;;;;;5032142;28;20479;-77
2024/02/28 03:32:29;;;;;;;27.43;17.10;;;;;;;;;;5029824;28;20904;-80
2024/02/28 03:34:55;;;;;;;25.70;16.90;;;;;;;;;;5032701;28;20504;-77
2024/02/28 03:37:20;;;;;;;28.03;17.50;;;;;;;;;;5032548;28;20510;-77
2024/02/28 03:39:46;;;;;;;27.20;17.40;;;;;;;;;;5029411;28;20844;-76
2024/02/28 03:42:12;;;;;;;27.70;17.47;;;;;;;;;;5032664;28;20418;-78
2024/02/28 03:44:38;;;;;;;24.33;16.73;;;;;;;;;;5031148;28;20409;-78
2024/02/28 03:47:04;;;;;;;31.00;18.97;;;;;;;;;;5032859;28;20416;-78
2024/02/28 03:49:30;;;;;;;24.77;16.90;;;;;;;;;;5032806;28;20414;-78
2024/02/28 03:51:56;;;;;;;26.17;17.13;;;;;;;;;;5032882;28;20420;-77
2024/02/28 03:54:22;;;;;;;24.53;15.70;;;;;;;;;;5032757;28;20421;-77
2024/02/28 03:56:51;;;;;;;24.10;15.23;;;;;;;;;;5032667;28;20525;-78
2024/02/28 03:59:17;;;;;;;23.73;15.50;;;;;;;;;;5032361;28;20408;-77
2024/02/28 04:01:42;;;;;;;23.13;15.57;;;;;;;;;;5032684;28;20754;-78
2024/02/28 04:04:08;;;;;;;29.23;17.00;;;;;;;;;;5031448;28;20419;-78
2024/02/28 04:06:34;;;;;;;25.73;16.77;;;;;;;;;;5032648;28;20434;-78
2024/02/28 04:09:01;;;;;;;24.27;17.03;;;;;;;;;;5032692;28;20627;-78
2024/02/28 04:11:27;;;;;;;29.40;18.80;;;;;;;;;;5032601;28;20840;-79
2024/02/28 04:13:52;;;;;;;27.83;17.70;;;;;;;;;;5032361;28;20460;-77
2024/02/28 04:16:18;;;;;;;25.53;16.73;;;;;;;;;;5032581;28;20511;-78
2024/02/28 04:18:44;;;;;;;26.23;17.20;;;;;;;;;;5032611;28;20496;-78
2024/02/28 04:21:10;;;;;;;28.60;17.57;;;;;;;;;;5032580;28;20443;-78
2024/02/28 04:23:37;;;;;;;27.20;16.50;;;;;;;;;;5031453;28;20407;-78
2024/02/28 04:26:03;;;;;;;26.17;15.80;;;;;;;;;;5031326;28;20449;-80
2024/02/28 04:28:29;;;;;;;24.63;15.67;;;;;;;;;;5032493;28;20441;-77
2024/02/28 04:30:56;;;;;;;28.40;16.97;;;;;;;;;;5032171;28;20900;-78
2024/02/28 04:33:22;;;;;;;28.60;16.83;;;;;;;;;;5032338;28;20449;-77
2024/02/28 04:35:48;;;;;;;26.47;17.40;;;;;;;;;;5032389;28;20465;-78
2024/02/28 04:38:14;;;;;;;24.93;15.50;;;;;;;;;;5035593;28;20412;-79
2024/02/28 04:40:40;;;;;;;22.70;15.03;;;;;;;;;;5035830;28;20815;-77
2024/02/28 04:43:12;;;;;;;23.67;16.10;;;;;;;;;;5035920;28;20405;-78
2024/02/28 04:45:38;;;;;;;22.73;15.90;;;;;;;;;;5035694;28;20445;-78
2024/02/28 04:48:04;;;;;;;23.77;16.80;;;;;;;;;;5035900;28;20436;-78
2024/02/28 04:50:30;;;;;;;26.47;17.00;;;;;;;;;;5035715;28;20425;-78
2024/02/28 04:52:56;;;;;;;27.83;17.60;;;;;;;;;;5035775;28;20413;-78
2024/02/28 04:55:22;;;;;;;28.50;17.40;;;;;;;;;;5035539;28;20986;-78
2024/02/28 04:57:48;;;;;;;25.67;16.93;;;;;;;;;;5035717;28;20417;-77
2024/02/28 05:00:20;;;;;;;27.60;16.43;;;;;;;;;;5035109;28;20400;-78
2024/02/28 05:02:46;;;;;;;25.43;16.10;;;;;;;;;;5035622;28;20958;-78
2024/02/28 05:05:12;;;;;;;32.77;17.20;;;;;;;;;;5035624;28;20453;-78
2024/02/28 05:07:38;;;;;;;25.27;14.80;;;;;;;;;;5035522;28;20446;-77
2024/02/28 05:10:04;;;;;;;22.60;15.40;;;;;;;;;;5034288;28;20429;-78
2024/02/28 05:12:30;;;;;;;27.00;16.70;;;;;;;;;;5033659;28;20418;-77
2024/02/28 05:14:56;;;;;;;24.67;15.70;;;;;;;;;;5034965;28;21015;-78
2024/02/28 05:17:22;;;;;;;25.23;15.80;;;;;;;;;;5035349;28;20409;-78
2024/02/28 05:19:47;;;;;;;19.70;13.83;;;;;;;;;;5035348;28;20425;-77
2024/02/28 05:22:13;;;;;;;21.83;14.80;;;;;;;;;;5033989;28;20921;-78
2024/02/28 05:24:39;;;;;;;24.10;15.87;;;;;;;;;;5035229;28;20420;-78
2024/02/28 05:27:05;;;;;;;20.33;13.63;;;;;;;;;;5035119;28;20779;-78
2024/02/28 05:29:31;;;;;;;21.67;13.63;;;;;;;;;;5034753;28;20417;-78
2024/02/28 05:31:57;;;;;;;21.80;13.63;;;;;;;;;;5035128;28;20408;-77
2024/02/28 05:34:23;;;;;;;20.73;13.73;;;;;;;;;;5034980;28;20470;-77
2024/02/28 05:36:50;;;;;;;20.47;13.03;;;;;;;;;;5034892;28;20474;-77
2024/02/28 05:39:16;;;;;;;18.37;12.17;;;;;;;;;;5034725;28;20450;-77
2024/02/28 05:41:42;;;;;;;23.30;13.17;;;;;;;;;;5034907;28;20427;-77
2024/02/28 05:44:08;;;;;;;18.93;12.07;;;;;;;;;;5034428;28;20401;-77
2024/02/28 05:46:34;;;;;;;18.07;12.77;;;;;;;;;;5034794;28;20413;-77
2024/02/28 05:49:00;;;;;;;18.90;12.70;;;;;;;;;;5033790;28;20741;-78
2024/02/28 05:51:26;;;;;;;17.70;12.50;;;;;;;;;;5034699;28;20413;-78
2024/02/28 05:53:51;;;;;;;19.03;11.97;;;;;;;;;;5034705;28;20914;-78
2024/02/28 05:56:19;;;;;;;17.67;11.10;;;;;;;;;;5034578;28;21086;-78
2024/02/28 05:58:46;;;;;;;18.60;12.77;;;;;;;;;;5034303;28;20397;-78
2024/02/28 06:01:12;;;;;;;19.00;13.23;;;;;;;;;;5034458;28;20439;-78
2024/02/28 06:03:41;;;;;;;19.37;12.07;;;;;;;;;;5034273;28;20409;-78
2024/02/28 06:06:07;;;;;;;18.53;11.03;;;;;;;;;;5034457;28;20422;-78
2024/02/28 06:08:34;;;;;;;17.70;12.40;;;;;;;;;;5034229;28;20566;-78
2024/02/28 06:11:00;;;;;;;18.77;12.00;;;;;;;;;;5034322;28;20416;-78
2024/02/28 06:13:26;;;;;;;19.37;11.50;;;;;;;;;;5034291;28;20432;-77
2024/02/28 06:15:52;;;;;;;17.73;12.20;;;;;;;;;;5033804;28;20470;-78
2024/02/28 06:18:18;;;;;;;20.83;12.03;;;;;;;;;;5032951;28;20897;-78
2024/02/28 06:20:43;;;;;;;16.67;12.20;;;;;;;;;;5034169;28;20421;-77
2024/02/28 06:23:09;;;;;;;19.20;12.70;;;;;;;;;;5034108;28;20471;-80
2024/02/28 06:25:35;;;;;;;19.97;12.07;;;;;;;;;;5032709;28;20405;-77
2024/02/28 06:28:06;;;;;;;15.87;11.63;;;;;;;;;;5033987;28;20410;-79
2024/02/28 06:30:32;;;;;;;18.53;11.93;;;;;;;;;;5033633;28;20416;-78
2024/02/28 06:33:01;;;;;;;17.00;12.10;;;;;;;;;;5033939;28;20923;-77
2024/02/28 06:35:27;;;;;;;23.20;14.20;;;;;;;;;;5033657;28;21015;-77
2024/02/28 06:37:54;;;;;;;15.87;10.30;;;;;;;;;;5032639;28;20430;-77
2024/02/28 06:40:20;;;;;;;16.03;8.77;;;;;;;;;;5033734;28;20548;-77
2024/02/28 06:42:46;;;;;;;19.17;12.03;;;;;;;;;;5033754;28;20448;-78
2024/02/28 06:45:12;;;;;;;22.13;13.60;;;;;;;;;;5033421;28;20905;-80
2024/02/28 06:47:41;;;;;;;13.87;9.40;;;;;;;;;;5033683;28;20926;-76
2024/02/28 06:50:07;;;;;;;15.83;12.40;;;;;;;;;;5033501;28;20975;-77
2024/02/28 06:52:34;;;;;;;18.88;13.07;;;;;;;;;;5033184;28;20854;-78
2024/02/28 06:55:09;;;;;;;19.10;12.17;;;;;;;;;;5032116;28;20219;-77
2024/02/28 06:57:35;;;;;;;18.90;12.30;;;;;;;;;;5033375;28;20925;-79
2024/02/28 07:00:04;;;;;;;17.87;11.57;;;;;;;;;;5033034;28;20518;-77
2024/02/28 07:02:30;;;;;;;17.00;10.93;;;;;;;;;;5033576;28;20936;-78
2024/02/28 07:04:56;;;;;;;20.40;13.27;;;;;;;;;;5033620;28;20403;-75
2024/02/28 07:07:22;;;;;;;17.60;13.27;;;;;;;;;;5033381;28;20816;-80
2024/02/28 07:09:54;;;;;;;17.20;11.43;;;;;;;;;;5033283;28;20822;-78
2024/02/28 07:12:20;;;;;;;20.53;13.17;;;;;;;;;;5032074;28;20426;-85
2024/02/28 07:14:46;;;;;;;21.00;13.10;;;;;;;;;;5032982;28;20412;-81
2024/02/28 07:17:14;;;;;;;21.27;12.20;;;;;;;;;;5032010;28;20425;-80
2024/02/28 07:19:40;;;;;;;21.50;12.47;;;;;;;;;;5033250;28;20819;-83
2024/02/28 07:22:06;;;;;;;15.77;11.90;;;;;;;;;;5033304;28;20425;-80
2024/02/28 07:24:32;;;;;;;15.63;11.03;;;;;;;;;;5033131;28;20768;-77
2024/02/28 07:26:58;;;;;;;16.77;11.20;;;;;;;;;;5033145;28;20456;-79
2024/02/28 07:29:24;;;;;;;14.57;10.77;;;;;;;;;;5032856;28;20417;-77
2024/02/28 07:31:53;;;;;;;19.77;13.10;;;;;;;;;;5033092;28;20504;-78
2024/02/28 07:34:19;;;;;;;17.90;10.93;;;;;;;;;;5033118;28;20764;-78
2024/02/28 07:36:45;;;;;;;19.30;11.17;;;;;;;;;;5031674;28;20483;-79
2024/02/28 07:39:12;;;;;;;16.00;10.53;;;;;;;;;;5032872;28;20461;-77
2024/02/28 07:41:38;;;;;;;16.47;10.70;;;;;;;;;;5033023;28;20441;-77
2024/02/28 07:44:05;;;;;;;18.10;10.83;;;;;;;;;;5032344;28;20410;-77
2024/02/28 07:46:31;;;;;;;15.60;10.07;;;;;;;;;;5032612;28;20425;-77
2024/02/28 07:48:57;;;;;;;18.17;11.63;;;;;;;;;;5032741;28;20920;-76
2024/02/28 07:51:22;;;;;;;15.30;10.40;;;;;;;;;;5032609;28;20463;-78
2024/02/28 07:53:48;;;;;;;15.57;9.60;;;;;;;;;;5032419;28;20416;-77
2024/02/28 07:56:17;;;;;;;18.70;12.07;;;;;;;;;;5032477;28;20504;-77
2024/02/28 07:58:43;;;;;;;15.43;10.67;;;;;;;;;;5032278;28;20412;-78
2024/02/28 08:01:09;;;;;;;14.87;9.80;;;;;;;;;;5032671;28;20405;-80
2024/02/28 08:03:41;;;;;;;14.87;10.30;;;;;;;;;;5032710;28;20925;-77
2024/02/28 08:06:08;;;;;;;17.27;10.63;;;;;;;;;;5032628;28;20412;-78
2024/02/28 08:08:34;;;;;;;14.93;11.03;;;;;;;;;;5032594;28;20413;-77
2024/02/28 08:11:00;;;;;;;14.03;9.17;;;;;;;;;;5031360;28;20421;-76
2024/02/28 08:13:28;;;;;;;13.63;9.50;;;;;;;;;;5035938;28;20482;-78
2024/02/28 08:15:54;;;;;;;17.03;11.80;;;;;;;;;;5036524;28;20472;-77
2024/02/28 08:18:20;;;;;;;17.77;11.10;;;;;;;;;;5036426;28;20429;-79
2024/02/28 08:20:46;;;;;;;15.17;10.50;;;;;;;;;;5036379;28;20433;-77
2024/02/28 08:23:11;;;;;;;13.40;10.50;;;;;;;;;;5036220;28;20427;-77
2024/02/28 08:25:37;;;;;;;13.03;9.10;;;;;;;;;;5036278;28;20424;-77
2024/02/28 08:28:04;;;;;;;14.80;8.77;;;;;;;;;;5036290;28;20409;-77
2024/02/28 08:30:30;;;;;;;12.73;8.97;;;;;;;;;;5035694;28;20426;-76
2024/02/28 08:32:57;;;;;;;13.33;10.37;;;;;;;;;;5036056;28;20404;-76
2024/02/28 08:35:23;;;;;;;18.00;10.00;;;;;;;;;;5036070;28;20463;-78
2024/02/28 08:37:49;;;;;;;14.87;10.50;;;;;;;;;;5036078;28;20413;-77
2024/02/28 08:40:15;;;;;;;15.43;11.10;;;;;;;;;;5035797;28;20503;-80
2024/02/28 08:42:41;;;;;;;16.40;11.43;;;;;;;;;;5035999;28;20462;-77
2024/02/28 08:45:07;;;;;;;15.57;10.73;;;;;;;;;;5035604;28;20252;-76
2024/02/28 08:47:33;;;;;;;15.27;11.03;;;;;;;;;;5035694;28;20407;-77
2024/02/28 08:49:59;;;;;;;16.33;12.60;;;;;;;;;;5034537;28;20506;-79
2024/02/28 08:52:28;;;;;;;16.40;11.63;;;;;;;;;;5035922;28;20494;-78
2024/02/28 08:54:54;;;;;;;19.40;13.97;;;;;;;;;;5034332;28;20428;-78
2024/02/28 08:57:22;;;;;;;20.93;13.87;;;;;;;;;;5035718;28;20451;-79
2024/02/28 08:59:48;;;;;;;20.27;13.90;;;;;;;;;;5035476;28;20817;-79
2024/02/28 09:02:14;;;;;;;20.27;13.37;;;;;;;;;;5035829;28;20543;-80
2024/02/28 09:04:39;;;;;;;17.37;13.50;;;;;;;;;;5035626;28;20219;-78
2024/02/28 09:07:08;;;;;;;17.83;14.60;;;;;;;;;;5035474;28;20170;-79
2024/02/28 09:09:37;;;;;;;16.20;12.90;;;;;;;;;;5034405;28;20179;-80
2024/02/28 09:12:03;;;;;;;19.17;14.80;;;;;;;;;;5035530;28;20426;-79
2024/02/28 09:14:29;;;;;;;17.97;15.33;;;;;;;;;;5035117;28;20421;-80
2024/02/28 09:17:02;;;;;;;15.27;13.40;;;;;;;;;;5035288;28;20481;-78
2024/02/28 09:19:31;;;;;;;18.70;16.50;;;;;;;;;;5034245;28;20179;-78
2024/02/28 09:21:57;;;;;;;16.30;14.20;;;;;;;;;;5035302;28;20415;-79
2024/02/28 09:24:24;;;;;;;20.60;16.33;;;;;;;;;;5033909;28;20420;-79
2024/02/28 09:26:50;;;;;;;18.07;16.17;;;;;;;;;;5034876;28;20803;-80
2024/02/28 09:29:15;;;;;;;23.07;16.50;;;;;;;;;;5034809;28;20412;-78
2024/02/28 09:31:41;;;;;;;19.93;15.97;;;;;;;;;;5034741;28;20416;-79
2024/02/28 09:34:10;;;;;;;23.03;16.23;;;;;;;;;;5035123;28;20175;-79
2024/02/28 09:36:45;;;;;;;20.87;16.30;;;;;;;;;;5034977;28;20214;-79
2024/02/28 09:39:11;;;;;;;22.00;16.83;;;;;;;;;;5034794;28;20463;-78
2024/02/28 09:41:36;;;;;;;22.87;17.33;;;;;;;;;;5034738;28;20426;-78
2024/02/28 09:44:03;;;;;;;21.43;16.43;;;;;;;;;;5034395;28;20626;-78
2024/02/28 09:46:29;;;;;;;23.97;16.03;;;;;;;;;;5034611;28;20176;-80
2024/02/28 09:48:55;;;;;;;23.13;16.93;;;;;;;;;;5034562;28;20991;-78
2024/02/28 09:51:24;;;;;;;22.40;17.10;;;;;;;;;;5034383;28;20500;-79
2024/02/28 09:53:50;;;;;;;22.07;16.83;;;;;;;;;;5034505;28;20441;-78
2024/02/28 09:56:16;;;;;;;20.90;15.90;;;;;;;;;;5034289;28;20519;-79
2024/02/28 09:58:48;;;;;;;26.30;19.33;;;;;;;;;;5034050;28;20898;-78
2024/02/28 10:01:18;;;;;;;22.97;17.30;;;;;;;;;;5034202;28;20902;-79
2024/02/28 10:03:45;;;;;;;18.77;16.63;;;;;;;;;;5034418;28;20411;-77
2024/02/28 10:06:11;;;;;;;17.67;14.40;;;;;;;;;;5034209;28;20421;-79
2024/02/28 10:08:37;;;;;;;19.80;14.87;;;;;;;;;;5034142;28;20962;-79
2024/02/28 10:11:03;;;;;;;17.90;15.57;;;;;;;;;;5034101;28;20174;-79
2024/02/28 10:13:28;;;;;;;18.37;15.00;;;;;;;;;;5033751;28;20500;-78
2024/02/28 10:15:55;;;;;;;19.57;17.10;;;;;;;;;;5034222;28;20475;-79
2024/02/28 10:18:21;;;;;;;19.30;17.30;;;;;;;;;;5034152;28;20426;-81
2024/02/28 10:20:48;;;;;;;20.67;18.30;;;;;;;;;;5034248;28;20421;-79
2024/02/28 10:23:16;;;;;;;19.07;16.97;;;;;;;;;;5034252;28;20435;-79
2024/02/28 10:25:43;;;;;;;18.97;17.07;;;;;;;;;;5034233;28;20429;-79
2024/02/28 10:28:10;;;;;;;22.17;17.53;;;;;;;;;;5032651;28;20429;-79
2024/02/28 10:30:43;;;;;;;23.20;18.97;;;;;;;;;;5034089;28;20421;-81
2024/02/28 10:33:15;;;;;;;17.77;15.70;;;;;;;;;;5032886;28;20410;-79
2024/02/28 10:35:42;;;;;;;17.23;14.83;;;;;;;;;;5033583;28;20480;-79
2024/02/28 10:38:11;;;;;;;18.07;15.70;;;;;;;;;;5033922;28;20768;-80
2024/02/28 10:40:37;;;;;;;20.27;16.57;;;;;;;;;;5033809;28;20466;-80
2024/02/28 10:43:04;;;;;;;16.30;13.60;;;;;;;;;;5033554;28;20412;-80
2024/02/28 10:45:34;;;;;;;15.53;13.93;;;;;;;;;;5034017;28;20538;-79
2024/02/28 10:48:01;;;;;;;15.87;13.93;;;;;;;;;;5033875;28;20427;-80
2024/02/28 10:50:27;;;;;;;16.57;14.80;;;;;;;;;;5033858;28;20468;-81
2024/02/28 10:52:54;;;;;;;14.33;12.03;;;;;;;;;;5031587;28;20415;-84
2024/02/28 10:55:23;;;;;;;17.87;14.47;;;;;;;;;;5033933;28;20474;-85
2024/02/28 10:57:59;;;;;;;15.60;13.10;;;;;;;;;;5034794;28;20407;-88
2024/02/28 11:00:25;;;;;;;20.80;14.10;;;;;;;;;;5034169;28;20809;-83
2024/02/28 11:02:52;;;;;;;19.00;15.97;;;;;;;;;;5032385;28;20476;-83
2024/02/28 11:05:18;;;;;;;18.30;12.70;;;;;;;;;;5033219;28;20416;-81
2024/02/28 11:07:45;;;;;;;17.10;14.17;;;;;;;;;;5032136;28;20426;-83
2024/02/28 11:10:14;;;;;;;19.00;13.53;;;;;;;;;;5032559;28;20562;-82
2024/02/28 11:12:41;;;;;;;19.03;12.87;;;;;;;;;;5032630;28;20435;-82
2024/02/28 11:15:15;;;;;;;19.87;14.90;;;;;;;;;;5032634;28;20991;-82
2024/02/28 11:17:41;;;;;;;16.83;13.97;;;;;;;;;;5032534;28;20473;-80
2024/02/28 11:20:14;;;;;;;16.87;14.33;;;;;;;;;;5032774;28;20416;-82
2024/02/28 11:22:40;;;;;;;19.90;14.30;;;;;;;;;;5033294;28;20412;-84
2024/02/28 11:25:06;;;;;;;19.43;14.60;;;;;;;;;;5033336;28;20507;-84
2024/02/28 11:27:32;;;;;;;18.63;14.40;;;;;;;;;;5033436;28;20429;-80
2024/02/28 11:29:59;;;;;;;19.27;15.93;;;;;;;;;;5030916;28;20531;-81
2024/02/28 11:32:32;;;;;;;17.70;13.57;;;;;;;;;;5018380;28;20516;-83
2024/02/28 11:34:58;;;;;;;23.03;15.67;;;;;;;;;;5032785;28;20444;-89
2024/02/28 11:37:24;;;;;;;20.27;15.37;;;;;;;;;;5048599;28;20433;-81
2024/02/28 11:39:50;;;;;;;18.23;13.23;;;;;;;;;;5032232;28;20492;-82
2024/02/28 11:42:17;;;;;;;20.33;14.07;;;;;;;;;;5021799;28;20439;-80
2024/02/28 11:44:43;;;;;;;20.20;14.97;;;;;;;;;;5031340;28;20422;-80
2024/02/28 11:47:12;;;;;;;17.40;13.63;;;;;;;;;;5033080;28;20458;-81
2024/02/28 11:49:39;;;;;;;17.30;13.40;;;;;;;;;;5036811;28;20424;-82
2024/02/28 11:52:05;;;;;;;18.10;13.13;;;;;;;;;;5037316;28;20502;-86
2024/02/28 11:54:32;;;;;;;19.60;14.37;;;;;;;;;;5035785;28;20477;-78
2024/02/28 11:56:58;;;;;;;19.53;15.47;;;;;;;;;;5033199;28;21046;-79
2024/02/28 11:59:24;;;;;;;19.27;14.60;;;;;;;;;;5035477;28;20422;-82
2024/02/28 12:01:51;;;;;;;20.90;15.47;;;;;;;;;;5034514;28;20428;-80
2024/02/28 12:04:17;;;;;;;20.00;14.97;;;;;;;;;;5033705;28;20456;-81
2024/02/28 12:06:43;;;;;;;22.03;14.53;;;;;;;;;;5036095;28;20420;-81
2024/02/28 12:09:10;;;;;;;20.30;14.53;;;;;;;;;;5034101;28;21009;-80
2024/02/28 12:11:37;;;;;;;19.40;15.00;;;;;;;;;;5036271;28;20430;-82
2024/02/28 12:14:09;;;;;;;17.80;14.20;;;;;;;;;;5034753;28;20971;-80
2024/02/28 12:16:37;;;;;;;21.43;15.73;;;;;;;;;;5036197;28;20480;-84
2024/02/28 12:19:04;;;;;;;19.27;14.33;;;;;;;;;;5036348;28;20480;-84
2024/02/28 12:21:30;;;;;;;21.63;16.00;;;;;;;;;;5036133;28;20485;-84
2024/02/28 12:23:57;;;;;;;19.20;14.70;;;;;;;;;;5034779;28;20527;-81
2024/02/28 12:26:23;;;;;;;20.07;15.33;;;;;;;;;;5036032;28;20168;-79
2024/02/28 12:28:49;;;;;;;17.57;12.90;;;;;;;;;;5034303;28;20430;-80
2024/02/28 12:31:15;;;;;;;17.10;13.20;;;;;;;;;;5036018;28;20489;-79
2024/02/28 12:33:42;;;;;;;20.80;14.97;;;;;;;;;;5036105;28;20433;-81
2024/02/28 12:36:08;;;;;;;23.57;15.23;;;;;;;;;;5034607;28;20812;-82
2024/02/28 12:38:36;;;;;;;17.27;12.13;;;;;;;;;;5035516;28;20416;-79
2024/02/28 12:41:03;;;;;;;16.60;12.30;;;;;;;;;;5035561;28;20439;-80
2024/02/28 12:43:36;;;;;;;21.00;13.53;;;;;;;;;;5035522;28;20422;-84
2024/02/28 12:46:02;;;;;;;19.40;12.83;;;;;;;;;;5035574;28;20421;-82
2024/02/28 12:48:29;;;;;;;17.97;12.77;;;;;;;;;;5035510;28;20445;-80
2024/02/28 12:50:55;;;;;;;17.33;12.77;;;;;;;;;;5034177;28;20517;-81
2024/02/28 12:53:21;;;;;;;17.87;15.00;;;;;;;;;;5031645;28;20513;-83
2024/02/28 12:55:47;;;;;;;18.20;13.73;;;;;;;;;;5035139;28;20474;-81
2024/02/28 12:58:13;;;;;;;18.70;14.60;;;;;;;;;;5032168;28;20168;-81
2024/02/28 13:00:39;;;;;;;19.20;14.47;;;;;;;;;;5034138;28;20181;-80
2024/02/28 13:03:07;;;;;;;17.40;13.30;;;;;;;;;;5034191;28;20414;-81
2024/02/28 13:05:33;;;;;;;22.00;13.40;;;;;;;;;;5033854;28;20428;-81
2024/02/28 13:07:59;;;;;;;18.20;12.70;;;;;;;;;;5032477;28;20789;-82
2024/02/28 13:10:25;;;;;;;18.80;13.77;;;;;;;;;;5033605;28;20769;-82
2024/02/28 13:12:52;;;;;;;18.83;14.03;;;;;;;;;;5033839;28;20806;-83
2024/02/28 13:15:18;;;;;;;19.80;14.07;;;;;;;;;;5034959;28;20813;-81
2024/02/28 13:17:46;;;;;;;23.97;15.10;;;;;;;;;;5033802;28;20429;-83
2024/02/28 13:20:12;;;;;;;20.40;12.60;;;;;;;;;;5035128;28;20402;-83
2024/02/28 13:22:38;;;;;;;18.40;13.00;;;;;;;;;;5035073;28;20409;-82
2024/02/28 13:25:04;;;;;;;22.83;14.47;;;;;;;;;;5034355;28;20448;-82
2024/02/28 13:27:30;;;;;;;17.60;12.20;;;;;;;;;;5034158;28;20505;-81
2024/02/28 13:29:56;;;;;;;17.60;12.60;;;;;;;;;;5034860;28;20423;-83
2024/02/28 13:32:22;;;;;;;20.80;13.43;;;;;;;;;;5017494;28;20432;-84
2024/02/28 13:34:48;;;;;;;20.53;13.33;;;;;;;;;;5034652;28;20896;-83
2024/02/28 13:37:14;;;;;;;17.23;12.87;;;;;;;;;;5032306;28;20977;-82
2024/02/28 13:39:40;;;;;;;16.97;12.73;;;;;;;;;;5032894;28;20522;-84
2024/02/28 13:42:09;;;;;;;20.73;13.60;;;;;;;;;;5034443;28;20412;-83
2024/02/28 13:44:36;;;;;;;20.13;12.20;;;;;;;;;;5034297;28;20416;-83
2024/02/28 13:47:05;;;;;;;19.13;12.50;;;;;;;;;;5033345;28;20913;-82
2024/02/28 13:49:31;;;;;;;19.70;14.43;;;;;;;;;;5034484;28;20438;-82
2024/02/28 13:51:57;;;;;;;20.13;12.23;;;;;;;;;;5034462;28;20448;-81
2024/02/28 13:54:23;;;;;;;18.60;11.43;;;;;;;;;;5032893;28;20436;-84
2024/02/28 13:56:49;;;;;;;16.60;12.93;;;;;;;;;;5034354;28;20483;-85
2024/02/28 13:59:15;;;;;;;18.90;13.90;;;;;;;;;;5033894;28;20944;-82
2024/02/28 14:01:41;;;;;;;19.03;13.63;;;;;;;;;;5033980;28;20417;-84
2024/02/28 14:04:07;;;;;;;18.30;12.60;;;;;;;;;;5034117;28;20815;-82
2024/02/28 14:06:33;;;;;;;15.27;11.23;;;;;;;;;;5033749;28;20928;-82
2024/02/28 14:08:59;;;;;;;15.80;10.70;;;;;;;;;;5033420;28;20458;-81
2024/02/28 14:11:25;;;;;;;15.67;11.20;;;;;;;;;;5033660;28;20800;-83
2024/02/28 14:13:51;;;;;;;16.60;11.30;;;;;;;;;;5033681;28;20904;-83
2024/02/28 14:16:19;;;;;;;18.10;12.60;;;;;;;;;;5033984;28;20979;-82